N66ZG RJGG-RPLL
Flight info
| Callsign | N66ZG |
|---|---|
| Flight time | N/A |
| Altitude | 38000 |
| Route | KEC Z262 ALUYO Z26 TONAR Y525 ONC KXC Y62 MJC B462 LAO M646 SANRO W4 NABAL NABAL5R |
| Aircraft | GLF6/M-SFGHIRWXY/S |
Departure
| Time | 2026-05-04 10:36 |
|---|---|
| Airport | Chubu Centrair International Airport (RJGG) |
Arrival
| Time | N/A |
|---|---|
| Airport | Ninoy Aquino International Airport (RPLL) |
| Time | Latitude | Longitude | Altitude | Speed | Heading |
|---|---|---|---|---|---|
| 2026-05-04 09:51 | 34.85516 | 136.81145 | 8 ft | 0 kts | 169° |
| 2026-05-04 10:25 | 34.85528 | 136.81142 | 8 ft | 2 kts | 169° |
| 2026-05-04 10:26 | 34.85543 | 136.81139 | 8 ft | 2 kts | 169° |
| 2026-05-04 10:26 | 34.85558 | 136.81136 | 8 ft | 2 kts | 169° |
| 2026-05-04 10:26 | 34.85573 | 136.81131 | 8 ft | 2 kts | 169° |
| 2026-05-04 10:26 | 34.85588 | 136.81130 | 8 ft | 2 kts | 196° |
| 2026-05-04 10:27 | 34.85601 | 136.81137 | 8 ft | 2 kts | 227° |
| 2026-05-04 10:27 | 34.85607 | 136.81151 | 8 ft | 0 kts | 256° |
| 2026-05-04 10:27 | 34.85608 | 136.81158 | 8 ft | 1 kts | 260° |
| 2026-05-04 10:31 | 34.85608 | 136.81157 | 8 ft | 1 kts | 261° |
| 2026-05-04 10:31 | 34.85600 | 136.81096 | 8 ft | 15 kts | 261° |
| 2026-05-04 10:32 | 34.85293 | 136.80916 | 8 ft | 10 kts | 168° |
| 2026-05-04 10:33 | 34.85210 | 136.80936 | 8 ft | 14 kts | 169° |
| 2026-05-04 10:33 | 34.85096 | 136.80963 | 8 ft | 19 kts | 169° |
| 2026-05-04 10:33 | 34.84938 | 136.81000 | 8 ft | 26 kts | 168° |
| 2026-05-04 10:33 | 34.84758 | 136.81045 | 8 ft | 26 kts | 169° |
| 2026-05-04 10:34 | 34.84582 | 136.81085 | 8 ft | 24 kts | 169° |
| 2026-05-04 10:34 | 34.84426 | 136.81125 | 8 ft | 18 kts | 168° |
| 2026-05-04 10:34 | 34.84346 | 136.81128 | 8 ft | 6 kts | 219° |
| 2026-05-04 10:34 | 34.84336 | 136.81084 | 8 ft | 4 kts | 259° |
| 2026-05-04 10:35 | 34.84330 | 136.81038 | 8 ft | 8 kts | 261° |
| 2026-05-04 10:35 | 34.84320 | 136.80945 | 8 ft | 8 kts | 266° |
| 2026-05-04 10:35 | 34.84366 | 136.80893 | 8 ft | 13 kts | 350° |
| 2026-05-04 10:35 | 34.84605 | 136.80835 | 8 ft | 69 kts | 349° |
| 2026-05-04 10:36 | 34.85323 | 136.80682 | 81 ft | 130 kts | 345° |
| 2026-05-04 10:36 | 34.86174 | 136.80493 | 896 ft | 125 kts | 335° |
| 2026-05-04 10:36 | 34.86809 | 136.79695 | 1426 ft | 158 kts | 293° |
| 2026-05-04 10:36 | 34.86630 | 136.78317 | 2352 ft | 185 kts | 245° |
| 2026-05-04 10:37 | 34.85890 | 136.77112 | 3517 ft | 186 kts | 240° |
| 2026-05-04 10:37 | 34.85087 | 136.75899 | 4568 ft | 196 kts | 226° |
| 2026-05-04 10:37 | 34.83807 | 136.74889 | 4838 ft | 253 kts | 215° |
| 2026-05-04 10:37 | 34.82161 | 136.73761 | 5657 ft | 281 kts | 214° |
| 2026-05-04 10:39 | 34.71369 | 136.66266 | 11888 ft | 346 kts | 214° |
| 2026-05-04 10:39 | 34.69314 | 136.64836 | 13093 ft | 347 kts | 214° |
| 2026-05-04 10:39 | 34.67201 | 136.63364 | 14201 ft | 350 kts | 214° |
| 2026-05-04 10:40 | 34.65135 | 136.61926 | 15365 ft | 351 kts | 215° |
| 2026-05-04 10:40 | 34.63026 | 136.60457 | 16506 ft | 351 kts | 215° |
| 2026-05-04 10:40 | 34.60922 | 136.58993 | 17580 ft | 351 kts | 216° |
| 2026-05-04 10:40 | 34.58811 | 136.57524 | 18618 ft | 352 kts | 216° |